Gabriels, New York
Current Conditions -  °F | °C
As of 9:09 AM on Friday 24 Oct 2014 (Local Time) from KSLK Reporting Station
Haze Haze  
Wind Chill: 38°   Ceiling: 700
Heat Index: 41°   Visibility: 6mi
Dew Point: 39°   Wind: 5mph
Humidity: 93%   Direction: 360°N
Pressure: 29.87"   Gusts: NA
Location:  44.43°N, 74.18°W
Report Text: KSLK 241309Z AUTO 36004KT 6SM BR OVC007 05/04 A2987 RMK AO2 CIG 006V011 T00500039
Loading
Personal Weather Stations






























Interactive Weather Map
Tropical Storm Tracking
New forecast layout! Learn more

10-Day Weather Forecast

Advertisements
Track Severe Weather on mobile